Time;durP1;ratioP1;P1;durP2;ratioP2;P2;SDS_P1;SDS_P2;PMS_P1;PMS_P2;Temp;Humidity;BMP_temperature;BMP_pressure;BME280_temperature;BME280_humidity;BME280_pressure;Samples;Min_cycle;Max_cycle;Signal;HPM_P1;HPM_P2
2022/03/15 00:02:16;;;;;;;16.45;7.65;;;;;;;5.98;75.54;102723.78;5014130;28;20390;-85
2022/03/15 00:04:41;;;;;;;16.05;7.13;;;;;;;5.97;75.24;102729.75;5013958;28;20113;-84
2022/03/15 00:07:10;;;;;;;15.48;7.13;;;;;;;5.94;75.03;102727.97;5013505;28;20041;-85
2022/03/15 00:09:35;;;;;;;15.18;7.10;;;;;;;5.93;74.92;102731.38;5013265;28;20053;-85
2022/03/15 00:12:04;;;;;;;15.27;6.90;;;;;;;5.87;75.45;102720.81;5013825;28;20026;-86
2022/03/15 00:14:29;;;;;;;15.57;6.90;;;;;;;5.85;75.31;102725.09;5013056;28;20034;-84
2022/03/15 00:16:54;;;;;;;14.27;6.77;;;;;;;5.83;75.57;102719.00;5014098;28;20041;-85
2022/03/15 00:19:19;;;;;;;13.52;6.65;;;;;;;5.83;75.43;102721.56;5013617;28;20470;-85
2022/03/15 00:21:45;;;;;;;14.68;6.65;;;;;;;5.80;75.58;102711.16;5013222;28;20033;-83
2022/03/15 00:24:10;;;;;;;15.95;7.20;;;;;;;5.81;75.54;102715.47;5013681;28;20022;-84
2022/03/15 00:26:35;;;;;;;13.98;6.47;;;;;;;5.79;75.58;102709.38;5013790;28;20795;-85
2022/03/15 00:29:01;;;;;;;14.82;6.60;;;;;;;5.78;75.83;102707.63;5012955;28;20553;-85
2022/03/15 00:31:26;;;;;;;14.50;6.95;;;;;;;5.74;75.63;102705.78;5013369;28;20022;-84
2022/03/15 00:33:52;;;;;;;15.60;7.10;;;;;;;5.72;75.77;102711.75;5013221;28;20393;-83
2022/03/15 00:36:17;;;;;;;15.07;6.97;;;;;;;5.72;75.63;102716.03;5012704;28;20026;-83
2022/03/15 00:38:43;;;;;;;13.88;6.30;;;;;;;5.71;76.21;102715.16;5013477;28;20026;-85
2022/03/15 00:41:09;;;;;;;13.93;6.43;;;;;;;5.69;75.75;102716.81;5012940;28;20065;-84
2022/03/15 00:43:34;;;;;;;15.15;6.65;;;;;;;5.68;75.76;102717.63;5015610;28;20122;-84
2022/03/15 00:46:00;;;;;;;13.40;6.50;;;;;;;5.68;76.26;102716.75;5033129;28;20061;-85
2022/03/15 00:48:26;;;;;;;13.93;6.65;;;;;;;5.62;76.62;102704.53;5032185;28;20087;-84
2022/03/15 00:50:51;;;;;;;12.87;5.83;;;;;;;5.56;76.70;102704.31;5033307;28;20028;-85
2022/03/15 00:53:16;;;;;;;12.80;6.17;;;;;;;5.52;76.14;102707.59;5032431;28;20159;-84
2022/03/15 00:55:45;;;;;;;12.23;5.70;;;;;;;5.49;76.33;102708.34;5032409;28;20366;-85
2022/03/15 00:58:11;;;;;;;11.73;5.93;;;;;;;5.48;76.19;102709.19;5032774;28;20052;-85
2022/03/15 01:00:36;;;;;;;13.77;6.03;;;;;;;5.47;76.28;102704.84;5032680;28;20115;-85
2022/03/15 01:03:03;;;;;;;13.32;6.13;;;;;;;5.43;77.18;102704.69;5032012;28;20026;-85
2022/03/15 01:05:28;;;;;;;11.52;5.47;;;;;;;5.37;76.37;102703.66;5032706;28;20031;-85
2022/03/15 01:07:54;;;;;;;13.68;6.30;;;;;;;5.36;76.30;102696.75;5032917;28;20115;-85
2022/03/15 01:10:22;;;;;;;11.95;5.70;;;;;;;5.36;76.93;102703.59;5031144;28;20049;-84
2022/03/15 01:12:47;;;;;;;12.48;5.70;;;;;;;5.37;76.64;102705.34;5032697;28;20393;-85
2022/03/15 01:15:13;;;;;;;12.65;5.90;;;;;;;5.37;76.58;102698.50;5016846;28;20036;-85
2022/03/15 01:17:38;;;;;;;12.82;6.05;;;;;;;5.39;76.82;102707.19;5012175;28;20033;-85
2022/03/15 01:20:05;;;;;;;11.80;5.90;;;;;;;5.40;76.60;102708.91;5013184;28;20022;-85
2022/03/15 01:22:31;;;;;;;12.80;6.15;;;;;;;5.41;77.14;102707.22;5013020;28;20044;-85
2022/03/15 01:24:56;;;;;;;11.82;5.70;;;;;;;5.40;77.63;102697.72;5012385;28;20533;-84
2022/03/15 01:27:22;;;;;;;10.38;5.28;;;;;;;5.38;77.46;102699.38;5012884;28;20026;-85
2022/03/15 01:29:47;;;;;;;9.68;5.07;;;;;;;5.36;77.22;102690.72;5016820;28;20393;-85
2022/03/15 01:32:12;;;;;;;11.13;5.40;;;;;;;5.37;77.04;102695.03;5031014;28;20017;-85
2022/03/15 01:34:38;;;;;;;9.52;4.88;;;;;;;5.37;77.04;102690.78;5031994;28;20462;-85
2022/03/15 01:37:03;;;;;;;8.32;4.70;;;;;;;5.39;77.85;102686.56;5032686;28;20049;-85
2022/03/15 01:39:29;;;;;;;8.43;4.50;;;;;;;5.37;77.91;102683.06;5031297;28;20055;-85
2022/03/15 01:41:54;;;;;;;9.38;4.65;;;;;;;5.37;77.20;102677.00;5032127;28;20373;-85
2022/03/15 01:44:21;;;;;;;8.18;4.55;;;;;;;5.33;77.36;102670.03;5022649;28;20112;-85
2022/03/15 01:46:47;;;;;;;;;;;;;;;5.33;77.28;102670.03;5013431;28;20052;-85
2022/03/15 01:49:13;;;;;;;9.38;4.95;;;;;;;5.34;77.18;102670.06;5012854;28;19913;-85
2022/03/15 01:51:41;;;;;;;13.15;5.55;;;;;;;5.36;77.20;102671.00;5011821;28;20458;-85
2022/03/15 01:54:11;;;;;;;9.80;5.00;;;;;;;5.38;77.02;102669.38;5012738;28;20014;-85
2022/03/15 01:56:41;;;;;;;10.85;5.65;;;;;;;5.37;77.39;102665.03;5012521;28;20036;-85
2022/03/15 01:59:14;;;;;;;9.90;5.32;;;;;;;5.38;77.27;102658.16;5012268;28;20017;-85
2022/03/15 02:01:41;;;;;;;9.90;5.45;;;;;;;5.36;76.91;102647.84;5012600;28;20030;-85
2022/03/15 02:04:07;;;;;;;10.82;5.60;;;;;;;5.36;76.86;102655.56;5012776;28;20033;-85
2022/03/15 02:06:42;;;;;;;10.80;5.40;;;;;;;5.39;76.96;102655.66;5011668;28;20029;-85
2022/03/15 02:09:15;;;;;;;10.57;5.57;;;;;;;5.38;77.07;102656.50;5012514;28;20048;-86
2022/03/15 02:11:42;;;;;;;11.40;5.40;;;;;;;5.40;77.54;102666.84;5012651;28;20112;-85
2022/03/15 02:14:08;;;;;;;8.52;4.80;;;;;;;5.37;77.46;102659.88;5011974;28;20033;-85
2022/03/15 02:16:34;;;;;;;9.70;4.95;;;;;;;5.36;76.93;102654.66;5012365;28;20021;-85
2022/03/15 02:19:01;;;;;;;9.00;4.60;;;;;;;5.36;77.04;102658.13;5012412;28;20072;-85
2022/03/15 02:21:27;;;;;;;10.02;5.00;;;;;;;5.36;77.37;102649.50;5011341;28;20022;-85
2022/03/15 02:23:52;;;;;;;7.88;4.43;;;;;;;5.32;78.05;102645.97;5016038;28;20112;-85
2022/03/15 02:26:18;;;;;;;7.07;4.43;;;;;;;5.31;78.54;102645.91;5015863;28;20064;-85
2022/03/15 02:28:46;;;;;;;10.27;4.63;;;;;;;5.25;78.78;102636.28;5015306;28;20057;-85
2022/03/15 02:31:11;;;;;;;8.65;4.50;;;;;;;5.20;79.05;102635.22;5016514;28;20114;-86
2022/03/15 02:33:37;;;;;;;7.10;4.18;;;;;;;5.18;78.09;102629.16;5020041;28;20032;-85
2022/03/15 02:36:02;;;;;;;8.73;4.30;;;;;;;5.19;77.48;102633.47;5036196;28;20469;-86
2022/03/15 02:38:28;;;;;;;10.48;4.75;;;;;;;5.20;78.96;102623.25;5035487;28;20030;-85
2022/03/15 02:40:53;;;;;;;9.15;4.80;;;;;;;5.23;77.89;102630.19;5035289;28;20021;-85
2022/03/15 02:43:18;;;;;;;6.65;4.50;;;;;;;5.23;77.65;102628.50;5035163;28;20381;-85
2022/03/15 02:45:44;;;;;;;7.68;4.50;;;;;;;5.24;78.99;102624.22;5034015;28;20080;-86
2022/03/15 02:48:09;;;;;;;10.13;4.90;;;;;;;5.24;77.90;102630.22;5034763;28;20029;-85
2022/03/15 02:50:34;;;;;;;10.02;4.22;;;;;;;5.21;78.67;102619.84;5034716;28;20622;-84
2022/03/15 02:53:02;;;;;;;7.75;4.22;;;;;;;5.21;77.97;102627.56;5034795;28;20029;-85
2022/03/15 02:55:32;;;;;;;8.38;4.20;;;;;;;5.20;79.03;102622.34;5033752;28;20070;-84
2022/03/15 02:57:58;;;;;;;7.43;4.22;;;;;;;5.19;78.11;102618.91;5016268;28;20026;-85
2022/03/15 03:00:24;;;;;;;8.65;4.40;;;;;;;5.20;78.90;102612.06;5015161;28;20048;-85
2022/03/15 03:02:50;;;;;;;7.33;4.30;;;;;;;5.19;78.48;102612.88;5014538;28;20065;-85
2022/03/15 03:05:15;;;;;;;7.07;4.07;;;;;;;5.18;79.00;102608.56;5026728;28;20296;-85
2022/03/15 03:07:40;;;;;;;8.32;4.22;;;;;;;5.20;78.83;102601.75;5035066;28;20029;-85
2022/03/15 03:10:06;;;;;;;6.90;3.70;;;;;;;5.19;78.54;102595.75;5033949;28;20128;-86
2022/03/15 03:12:32;;;;;;;5.27;3.40;;;;;;;5.17;78.78;102587.09;5034557;28;20029;-86
2022/03/15 03:14:57;;;;;;;6.53;4.15;;;;;;;5.17;78.03;102586.22;5034052;28;20017;-85
2022/03/15 03:17:24;;;;;;;6.93;3.97;;;;;;;5.18;77.94;102587.97;5033084;28;20022;-85
2022/03/15 03:19:49;;;;;;;8.02;4.25;;;;;;;5.17;77.71;102587.09;5034595;28;20030;-85
2022/03/15 03:22:15;;;;;;;8.38;4.32;;;;;;;5.20;77.89;102586.31;5034625;28;20080;-85
2022/03/15 03:24:42;;;;;;;8.02;4.50;;;;;;;5.20;77.54;102582.06;5033783;28;20025;-85
2022/03/15 03:27:07;;;;;;;7.07;4.10;;;;;;;5.21;77.57;102581.22;5034666;28;20033;-85
2022/03/15 03:29:33;;;;;;;8.43;4.63;;;;;;;5.22;78.03;102585.56;5034229;28;20078;-85
2022/03/15 03:31:58;;;;;;;7.13;4.20;;;;;;;5.18;78.59;102567.38;5033751;28;20473;-85
2022/03/15 03:34:23;;;;;;;6.90;3.92;;;;;;;5.20;77.89;102576.91;5033885;28;20143;-85
2022/03/15 03:36:48;;;;;;;7.50;4.30;;;;;;;5.20;77.33;102582.06;5033635;28;20084;-85
2022/03/15 03:39:14;;;;;;;8.77;4.35;;;;;;;5.19;78.29;102577.72;5023921;28;20038;-85
2022/03/15 03:41:40;;;;;;;7.88;4.10;;;;;;;5.15;77.65;102569.84;5014185;28;20462;-85
2022/03/15 03:44:05;;;;;;;7.25;4.00;;;;;;;5.15;78.03;102570.72;5013757;28;20026;-85
2022/03/15 03:46:34;;;;;;;6.75;4.00;;;;;;;5.14;78.23;102571.53;5013917;28;20083;-85
2022/03/15 03:48:59;;;;;;;7.38;4.18;;;;;;;5.15;77.29;102578.44;5014299;28;20021;-84
2022/03/15 03:51:24;;;;;;;8.00;4.60;;;;;;;5.17;77.37;102583.66;5014204;28;20120;-85
2022/03/15 03:53:50;;;;;;;9.20;4.77;;;;;;;5.19;77.57;102576.84;5014207;28;20443;-85
2022/03/15 03:56:15;;;;;;;9.75;4.78;;;;;;;5.18;77.51;102570.81;5013522;28;20107;-85
2022/03/15 03:58:41;;;;;;;9.02;4.75;;;;;;;5.18;77.49;102568.25;5013227;28;20048;-85
2022/03/15 04:01:09;;;;;;;6.70;4.10;;;;;;;5.18;77.85;102572.53;5031531;28;20014;-85
2022/03/15 04:03:34;;;;;;;6.47;4.00;;;;;;;5.15;77.94;102572.41;5026454;28;20047;-85
2022/03/15 04:06:03;;;;;;;9.02;4.22;;;;;;;5.13;77.64;102567.19;5033542;28;20101;-85
2022/03/15 04:08:28;;;;;;;7.43;4.22;;;;;;;5.13;77.77;102569.78;5036451;28;20068;-85
2022/03/15 04:10:54;;;;;;;6.75;3.78;;;;;;;5.14;78.26;102575.81;5033856;28;20074;-85
2022/03/15 04:13:19;;;;;;;6.82;3.97;;;;;;;5.13;77.85;102567.19;5032514;28;20041;-86
2022/03/15 04:15:45;;;;;;;7.93;4.10;;;;;;;5.14;78.01;102571.53;5033974;28;20022;-85
2022/03/15 04:18:11;;;;;;;5.97;3.65;;;;;;;5.14;78.17;102570.66;5033625;28;20026;-85
2022/03/15 04:20:36;;;;;;;6.95;3.90;;;;;;;5.14;78.24;102562.94;5032699;28;20026;-85
2022/03/15 04:23:02;;;;;;;8.63;3.80;;;;;;;5.13;77.53;102568.91;5033551;28;20112;-85
2022/03/15 04:25:28;;;;;;;5.43;3.65;;;;;;;5.11;77.82;102566.28;5033211;28;20053;-85
2022/03/15 04:27:56;;;;;;;7.72;4.10;;;;;;;5.15;77.95;102577.56;5032467;28;20114;-85
2022/03/15 04:30:22;;;;;;;7.25;4.00;;;;;;;5.14;77.56;102576.69;5033070;28;20389;-85
2022/03/15 04:32:48;;;;;;;7.10;3.90;;;;;;;5.13;77.76;102576.63;5033002;28;20030;-85
2022/03/15 04:35:16;;;;;;;6.47;3.83;;;;;;;5.14;77.60;102579.25;5032706;28;20018;-85
2022/03/15 04:37:41;;;;;;;6.88;3.85;;;;;;;5.14;77.69;102576.69;5033372;28;20354;-85
2022/03/15 04:40:07;;;;;;;6.47;4.05;;;;;;;5.15;77.67;102575.00;5015550;28;20029;-85
2022/03/15 04:42:34;;;;;;;5.90;3.80;;;;;;;5.15;77.62;102570.72;5013826;28;20125;-85
2022/03/15 04:44:59;;;;;;;8.32;4.10;;;;;;;5.15;77.54;102569.84;5013108;28;20112;-85
2022/03/15 04:47:24;;;;;;;5.95;3.70;;;;;;;5.13;78.00;102563.75;5012289;28;20065;-85
2022/03/15 04:49:50;;;;;;;6.85;3.88;;;;;;;5.13;77.61;102559.47;5014102;28;20044;-85
2022/03/15 04:52:16;;;;;;;5.70;3.70;;;;;;;5.14;77.59;102561.22;5033346;28;20028;-86
2022/03/15 04:54:41;;;;;;;8.02;4.03;;;;;;;5.13;77.39;102559.47;5032427;28;20363;-85
2022/03/15 04:57:06;;;;;;;8.82;4.57;;;;;;;5.15;77.50;102562.97;5033089;28;20083;-85
2022/03/15 04:59:32;;;;;;;6.22;3.90;;;;;;;5.08;77.78;102561.88;5032541;28;20347;-85
2022/03/15 05:01:57;;;;;;;5.15;3.60;;;;;;;5.12;77.67;102564.59;5031916;28;20034;-84
2022/03/15 05:04:23;;;;;;;5.63;3.47;;;;;;;5.04;78.17;102549.75;5031870;28;20033;-85
2022/03/15 05:06:48;;;;;;;6.53;3.40;;;;;;;5.04;78.10;102549.75;5032815;28;20041;-85
2022/03/15 05:09:13;;;;;;;5.55;3.30;;;;;;;5.02;78.58;102555.66;5032234;28;20056;-86
2022/03/15 05:11:44;;;;;;;4.10;3.03;;;;;;;4.98;78.56;102541.81;5033467;28;20028;-85
2022/03/15 05:14:09;;;;;;;4.25;2.90;;;;;;;4.98;78.16;102546.09;5033712;28;20103;-86
2022/03/15 05:16:34;;;;;;;4.50;3.03;;;;;;;4.97;78.09;102550.34;5032449;28;20038;-85
2022/03/15 05:19:00;;;;;;;6.40;3.85;;;;;;;5.00;77.92;102550.47;5033087;28;20021;-85
2022/03/15 05:21:28;;;;;;;7.40;3.72;;;;;;;4.99;78.25;102543.56;5032679;28;20023;-85
2022/03/15 05:23:54;;;;;;;6.20;3.63;;;;;;;4.97;78.23;102539.19;5032529;28;20100;-85
2022/03/15 05:26:20;;;;;;;6.25;3.80;;;;;;;4.97;77.64;102540.06;5032346;28;20117;-85
2022/03/15 05:28:49;;;;;;;5.95;3.60;;;;;;;4.98;77.86;102543.53;5032703;28;20060;-85
2022/03/15 05:31:14;;;;;;;6.82;3.70;;;;;;;4.98;78.03;102544.38;5032007;28;20033;-85
2022/03/15 05:33:40;;;;;;;7.13;4.15;;;;;;;5.00;77.59;102547.88;5024709;28;20485;-85
2022/03/15 05:36:05;;;;;;;6.18;3.90;;;;;;;4.98;77.61;102541.81;5013014;28;20025;-85
2022/03/15 05:38:31;;;;;;;7.72;4.32;;;;;;;5.01;77.66;102541.94;5013403;28;20474;-85
2022/03/15 05:40:56;;;;;;;7.35;4.32;;;;;;;5.00;77.50;102540.16;5032545;28;20465;-85
2022/03/15 05:43:22;;;;;;;6.25;4.00;;;;;;;5.00;77.61;102532.44;5031525;28;20101;-85
2022/03/15 05:45:48;;;;;;;8.47;4.40;;;;;;;4.96;77.88;102530.56;5032680;28;20033;-85
2022/03/15 05:48:13;;;;;;;7.13;3.90;;;;;;;4.97;78.11;102527.19;5032742;28;20071;-85
2022/03/15 05:50:38;;;;;;;9.52;4.70;;;;;;;4.98;77.86;102528.94;5031610;28;20472;-85
2022/03/15 05:53:04;;;;;;;7.28;4.47;;;;;;;4.98;77.73;102526.38;5032532;28;20035;-85
2022/03/15 05:55:31;;;;;;;6.77;4.10;;;;;;;4.98;77.41;102523.78;5032529;28;20025;-85
2022/03/15 05:57:57;;;;;;;6.80;4.25;;;;;;;4.97;78.00;102521.19;5034763;28;20547;-85
2022/03/15 06:00:22;;;;;;;5.82;3.75;;;;;;;4.95;78.09;102519.44;5036029;28;20025;-85
2022/03/15 06:02:47;;;;;;;6.88;3.80;;;;;;;4.94;78.18;102514.25;5036972;28;20014;-85
2022/03/15 06:05:12;;;;;;;6.90;3.70;;;;;;;4.93;78.28;102515.91;5017166;28;20490;-85
2022/03/15 06:07:45;;;;;;;7.07;3.97;;;;;;;4.95;78.81;102516.84;5015569;28;20512;-85
2022/03/15 06:10:11;;;;;;;9.73;4.65;;;;;;;4.95;78.11;102513.41;5015727;28;20057;-85
2022/03/15 06:12:39;;;;;;;6.43;3.90;;;;;;;4.94;78.66;102515.09;5021788;28;20021;-85
2022/03/15 06:15:05;;;;;;;8.73;4.95;;;;;;;5.01;78.20;102520.47;5035993;28;20017;-85
2022/03/15 06:17:34;;;;;;;8.50;4.38;;;;;;;5.01;78.12;102520.47;5035524;28;20071;-85
2022/03/15 06:19:59;;;;;;;6.72;4.10;;;;;;;5.03;78.02;102516.22;5035310;28;20051;-85
2022/03/15 06:22:24;;;;;;;9.88;4.35;;;;;;;5.05;77.57;102504.28;5035306;28;20022;-85
2022/03/15 06:24:49;;;;;;;8.27;4.27;;;;;;;5.06;77.68;102506.94;5035805;28;20148;-86
2022/03/15 06:27:15;;;;;;;6.85;4.20;;;;;;;5.06;78.00;102503.47;5034656;28;20358;-85
2022/03/15 06:29:40;;;;;;;6.97;4.00;;;;;;;5.07;77.81;102507.81;5026068;28;20025;-85
2022/03/15 06:32:06;;;;;;;8.32;4.28;;;;;;;5.05;78.20;102507.75;5016042;28;20026;-85
2022/03/15 06:34:32;;;;;;;6.57;4.03;;;;;;;5.06;77.58;102509.53;5014830;28;20045;-86
2022/03/15 06:36:58;;;;;;;7.80;4.20;;;;;;;5.07;77.85;102508.66;5015868;28;20482;-86
2022/03/15 06:39:23;;;;;;;8.40;4.30;;;;;;;5.06;77.48;102500.91;5015611;28;20026;-86
2022/03/15 06:41:50;;;;;;;7.72;4.22;;;;;;;5.10;77.78;102501.06;5015221;28;20517;-86
2022/03/15 06:44:16;;;;;;;8.43;4.30;;;;;;;5.13;77.65;102499.41;5015661;28;20486;-86
2022/03/15 06:46:41;;;;;;;6.70;4.43;;;;;;;5.14;77.19;102499.47;5015310;28;20030;-86
2022/03/15 06:49:07;;;;;;;7.72;4.53;;;;;;;5.13;77.54;102495.13;5015930;28;20099;-86
2022/03/15 06:51:33;;;;;;;6.10;4.03;;;;;;;5.13;77.73;102491.69;5034952;28;20038;-86
2022/03/15 06:53:58;;;;;;;7.63;4.78;;;;;;;5.14;78.10;102501.19;5035279;28;20021;-86
2022/03/15 06:56:23;;;;;;;8.03;4.40;;;;;;;5.13;77.67;102500.28;5032849;28;20037;-86
2022/03/15 06:58:50;;;;;;;7.00;4.22;;;;;;;5.12;79.25;102489.94;5035045;28;20029;-86
2022/03/15 07:01:15;;;;;;;8.52;4.45;;;;;;;5.08;78.29;102486.41;5032726;28;20026;-86
2022/03/15 07:03:41;;;;;;;8.48;4.55;;;;;;;5.10;78.38;102495.06;5055024;28;20021;-85
2022/03/15 07:06:06;;;;;;;6.82;4.05;;;;;;;5.13;78.37;102494.28;5026035;28;20029;-86
2022/03/15 07:08:31;;;;;;;8.13;4.50;;;;;;;5.13;78.04;102486.56;5034088;28;20043;-82
2022/03/15 07:10:57;;;;;;;6.60;3.88;;;;;;;5.17;78.11;102493.56;5034782;28;20032;-87
2022/03/15 07:13:22;;;;;;;10.00;4.88;;;;;;;5.19;77.95;102491.88;5034801;28;20151;-86
2022/03/15 07:15:47;;;;;;;8.82;5.07;;;;;;;5.19;78.40;102494.47;5034323;28;20017;-82
2022/03/15 07:18:15;;;;;;;9.57;5.15;;;;;;;5.22;78.16;102498.03;5035964;28;20033;-88
2022/03/15 07:20:41;;;;;;;10.88;5.80;;;;;;;5.24;79.29;102485.22;5035855;28;20432;-90
2022/03/15 07:23:06;;;;;;;13.10;5.90;;;;;;;5.26;79.00;102479.28;5036171;28;20108;-90
2022/03/15 07:25:31;;;;;;;10.90;5.43;;;;;;;5.28;78.66;102478.47;5034785;28;20025;-81
2022/03/15 07:27:57;;;;;;;11.18;5.57;;;;;;;5.32;79.44;102475.16;5034930;28;20029;-83
2022/03/15 07:30:23;;;;;;;15.70;7.78;;;;;;;5.33;79.87;102477.78;5019175;28;20359;-81
2022/03/15 07:32:48;;;;;;;15.30;7.93;;;;;;;5.36;79.16;102477.00;5014809;28;20393;-82
2022/03/15 07:35:15;;;;;;;11.70;6.07;;;;;;;5.39;79.21;102471.97;5014786;28;20088;-82
2022/03/15 07:37:58;;;;;;;11.05;5.95;;;;;;;5.44;78.93;102472.09;5013363;28;20108;-82
2022/03/15 07:40:24;;;;;;;9.95;5.30;;;;;;;5.47;78.69;102478.22;5014221;28;20033;-81
2022/03/15 07:42:52;;;;;;;11.80;5.00;;;;;;;5.50;78.21;102480.06;5014827;28;20529;-82
2022/03/15 07:45:18;;;;;;;11.00;5.25;;;;;;;5.54;78.71;102474.16;5013679;28;20064;-82
2022/03/15 07:47:49;;;;;;;10.40;5.00;;;;;;;5.55;78.62;102479.38;5014503;28;20026;-82
2022/03/15 07:50:16;;;;;;;8.98;4.70;;;;;;;5.58;79.07;102476.00;5013730;28;20022;-82
2022/03/15 07:52:48;;;;;;;11.38;5.45;;;;;;;5.56;79.42;102462.19;5014170;28;20080;-82
2022/03/15 07:55:14;;;;;;;11.05;5.30;;;;;;;5.61;78.98;102468.38;5025027;28;20033;-86
2022/03/15 07:57:39;;;;;;;9.05;4.90;;;;;;;5.65;78.60;102477.06;5033388;28;20029;-86
2022/03/15 08:00:05;;;;;;;11.05;5.50;;;;;;;5.67;79.15;102471.13;5023303;28;20028;-86
2022/03/15 08:02:30;;;;;;;11.03;5.90;;;;;;;5.70;78.05;102466.09;5014016;28;20026;-86
2022/03/15 08:04:58;;;;;;;11.43;5.53;;;;;;;5.69;78.35;102466.91;5013489;28;20033;-86
2022/03/15 08:07:24;;;;;;;10.95;5.40;;;;;;;5.75;78.11;102463.66;5014019;28;20025;-86
2022/03/15 08:09:49;;;;;;;11.10;5.60;;;;;;;5.79;77.32;102464.63;5014360;28;20053;-86
2022/03/15 08:12:14;;;;;;;12.18;5.43;;;;;;;5.83;77.32;102463.91;5013521;28;20034;-86
2022/03/15 08:14:43;;;;;;;10.90;5.53;;;;;;;5.83;78.66;102457.03;5014171;28;20045;-85
2022/03/15 08:17:20;;;;;;;10.20;5.40;;;;;;;5.87;78.60;102457.97;5015150;28;20029;-83
2022/03/15 08:19:45;;;;;;;9.45;4.97;;;;;;;5.86;78.46;102449.41;5023420;28;20025;-88
2022/03/15 08:22:11;;;;;;;7.97;4.37;;;;;;;5.89;78.68;102446.03;5033928;28;20369;-84
2022/03/15 08:24:36;;;;;;;7.57;4.63;;;;;;;5.93;78.33;102442.72;5033445;28;20045;-83
2022/03/15 08:27:02;;;;;;;8.90;4.80;;;;;;;5.99;77.79;102445.50;5022415;28;20493;-83
2022/03/15 08:29:28;;;;;;;10.27;5.13;;;;;;;5.97;77.97;102430.81;5013614;28;20116;-84
2022/03/15 08:31:54;;;;;;;9.15;4.47;;;;;;;6.03;78.56;102436.16;5013490;28;20517;-85
2022/03/15 08:34:19;;;;;;;10.82;5.47;;;;;;;6.06;77.76;102437.97;5012583;28;20026;-85
2022/03/15 08:36:44;;;;;;;11.80;5.60;;;;;;;6.10;77.65;102440.69;5013742;28;20038;-85
2022/03/15 08:39:10;;;;;;;8.07;4.50;;;;;;;6.14;77.82;102436.47;5013710;28;20041;-85
2022/03/15 08:41:35;;;;;;;6.53;4.00;;;;;;;6.14;77.21;102428.75;5013092;28;20026;-85
2022/03/15 08:44:00;;;;;;;8.20;4.63;;;;;;;6.20;77.57;102430.63;5013479;28;20026;-85
2022/03/15 08:46:26;;;;;;;7.25;3.90;;;;;;;6.25;77.21;102434.22;5012636;28;20033;-85
2022/03/15 08:48:51;;;;;;;10.45;5.10;;;;;;;6.34;76.79;102435.34;5013511;28;20355;-86
2022/03/15 08:51:16;;;;;;;11.18;5.50;;;;;;;6.36;77.46;102434.50;5014118;28;20030;-85
2022/03/15 08:53:42;;;;;;;9.10;5.20;;;;;;;6.40;76.88;102431.19;5012984;28;20026;-85
2022/03/15 08:56:08;;;;;;;7.55;4.50;;;;;;;6.44;77.12;102422.69;5016479;28;20045;-85
2022/03/15 08:58:33;;;;;;;7.90;4.73;;;;;;;6.48;77.40;102421.94;5033001;28;20027;-85
2022/03/15 09:00:58;;;;;;;7.68;4.22;;;;;;;6.52;76.95;102426.38;5032327;28;20381;-85
2022/03/15 09:03:24;;;;;;;9.40;4.60;;;;;;;6.53;77.20;102420.34;5032809;28;20030;-85
2022/03/15 09:05:50;;;;;;;8.00;3.88;;;;;;;6.58;76.92;102420.50;5033324;28;20021;-86
2022/03/15 09:08:30;;;;;;;8.95;4.20;;;;;;;6.67;76.84;102427.59;5032158;28;20084;-85
2022/03/15 09:10:55;;;;;;;8.02;4.20;;;;;;;6.68;76.62;102417.31;5033352;28;20026;-86
2022/03/15 09:13:44;;;;;;;8.43;3.97;;;;;;;6.77;77.03;102427.00;5033106;28;20026;-85
2022/03/15 09:16:12;;;;;;;6.68;3.83;;;;;;;6.82;76.57;102417.69;5030837;28;20038;-85
2022/03/15 09:18:37;;;;;;;5.78;3.30;;;;;;;6.88;76.80;102414.38;5032614;28;20101;-85
2022/03/15 09:21:23;;;;;;;4.07;3.10;;;;;;;6.90;76.92;102415.31;5030954;28;20113;-86
2022/03/15 09:23:57;;;;;;;5.37;3.17;;;;;;;6.97;76.59;102416.31;5029967;28;20030;-85
2022/03/15 09:26:26;;;;;;;4.72;3.10;;;;;;;7.04;76.76;102424.25;5042317;22;20045;-87
2022/03/15 09:28:52;;;;;;;4.22;3.00;;;;;;;7.09;76.22;102427.81;5031371;28;20583;-85
2022/03/15 09:31:20;;;;;;;5.90;3.10;;;;;;;7.14;75.69;102422.75;5032264;28;20022;-84
2022/03/15 09:33:51;;;;;;;5.03;3.20;;;;;;;7.18;76.12;102422.00;5036510;28;20034;-86
2022/03/15 09:36:16;;;;;;;4.40;3.00;;;;;;;7.21;76.18;102427.22;5018223;28;20036;-85
2022/03/15 09:38:43;;;;;;;7.43;3.30;;;;;;;7.28;75.80;102427.41;5036496;28;20393;-83
2022/03/15 09:41:08;;;;;;;4.47;3.10;;;;;;;7.34;76.41;102424.94;5036728;28;20049;-83
2022/03/15 09:43:36;;;;;;;4.73;3.23;;;;;;;7.39;75.40;102425.94;5035173;28;20045;-82
2022/03/15 09:46:04;;;;;;;5.18;2.78;;;;;;;7.41;75.85;102424.28;5035962;28;20017;-83
2022/03/15 09:48:30;;;;;;;4.78;3.25;;;;;;;7.43;75.21;102425.16;5036267;28;20025;-83
2022/03/15 09:50:56;;;;;;;7.35;3.55;;;;;;;7.48;75.01;102420.97;5035452;28;20606;-83
2022/03/15 09:53:22;;;;;;;5.13;3.35;;;;;;;7.52;75.30;102420.22;5035402;28;20072;-83
2022/03/15 09:55:48;;;;;;;4.80;3.20;;;;;;;7.58;75.37;102419.50;5036679;28;20021;-83
2022/03/15 09:58:21;;;;;;;5.68;3.40;;;;;;;7.62;74.46;102418.69;5035418;28;20031;-83
2022/03/15 10:00:51;;;;;;;12.05;5.38;;;;;;;7.62;73.78;102421.28;5036305;28;20040;-83
2022/03/15 10:03:16;;;;;;;11.38;5.80;;;;;;;7.63;73.75;102411.84;5036085;28;20041;-82
2022/03/15 10:05:42;;;;;;;12.57;5.27;;;;;;;7.65;74.20;102411.03;5035350;28;20170;-83
2022/03/15 10:08:07;;;;;;;9.60;5.03;;;;;;;7.69;72.97;102399.03;5036006;28;20191;-82
2022/03/15 10:10:32;;;;;;;13.03;6.60;;;;;;;7.70;72.56;102400.78;5035694;28;20032;-83
2022/03/15 10:12:58;;;;;;;12.47;6.13;;;;;;;7.73;73.51;102393.09;5034653;28;20038;-82
2022/03/15 10:15:26;;;;;;;8.93;4.90;;;;;;;7.81;73.91;102388.97;5035665;28;20388;-82
2022/03/15 10:17:55;;;;;;;9.65;4.60;;;;;;;7.92;74.00;102396.06;5035174;28;20032;-83
2022/03/15 10:20:28;;;;;;;7.75;4.43;;;;;;;8.00;73.96;102392.81;5035198;28;20133;-83
2022/03/15 10:22:59;;;;;;;9.00;5.25;;;;;;;8.06;71.95;102399.81;5016285;28;20432;-82
2022/03/15 10:25:27;;;;;;;9.40;5.25;;;;;;;8.11;73.19;102390.44;5015044;28;20077;-82
2022/03/15 10:27:55;;;;;;;14.25;5.80;;;;;;;8.16;72.68;102385.38;5016267;28;20109;-83
2022/03/15 10:30:22;;;;;;;10.63;5.43;;;;;;;8.19;73.50;102381.13;5015581;28;20088;-83
2022/03/15 10:32:51;;;;;;;10.07;5.30;;;;;;;8.31;72.48;102379.63;5015647;28;20117;-82
2022/03/15 10:35:19;;;;;;;9.10;5.07;;;;;;;8.33;73.02;102370.19;5015473;28;20036;-82
2022/03/15 10:37:44;;;;;;;8.75;4.78;;;;;;;8.38;72.91;102367.66;5015836;28;20080;-82
2022/03/15 10:40:10;;;;;;;9.30;4.80;;;;;;;8.43;72.34;102364.31;5015482;28;20022;-83
2022/03/15 10:42:41;;;;;;;8.10;4.40;;;;;;;8.48;72.73;102362.72;5014490;28;20429;-82
2022/03/15 10:45:21;;;;;;;8.32;4.35;;;;;;;8.60;72.46;102366.34;5015634;28;20060;-82
2022/03/15 10:47:48;;;;;;;7.88;4.63;;;;;;;8.59;72.46;102357.72;5028979;28;20049;-82
2022/03/15 10:50:15;;;;;;;7.32;4.28;;;;;;;8.65;72.75;102359.56;5035506;28;20029;-83
2022/03/15 10:52:41;;;;;;;10.55;4.90;;;;;;;8.71;72.72;102354.47;5034868;28;20508;-83
2022/03/15 10:55:15;;;;;;;7.87;4.60;;;;;;;8.76;72.19;102355.44;5034745;28;20029;-83
2022/03/15 10:57:45;;;;;;;7.38;4.50;;;;;;;8.81;72.13;102353.78;5035237;28;20061;-83
2022/03/15 11:00:12;;;;;;;6.50;4.15;;;;;;;8.84;72.49;102347.75;5034134;28;20045;-83
2022/03/15 11:02:41;;;;;;;6.85;3.88;;;;;;;8.93;72.30;102352.22;5034980;28;20096;-81
2022/03/15 11:05:07;;;;;;;7.53;4.10;;;;;;;8.97;72.15;102348.84;5034202;28;20031;-82
2022/03/15 11:07:42;;;;;;;5.47;3.60;;;;;;;9.02;72.02;102349.78;5033303;28;20030;-82
2022/03/15 11:10:12;;;;;;;8.77;5.07;;;;;;;9.05;71.58;102342.06;5034336;28;20040;-83
2022/03/15 11:12:38;;;;;;;11.18;5.15;;;;;;;9.02;71.26;102344.59;5028901;28;20068;-82
2022/03/15 11:15:17;;;;;;;11.67;5.77;;;;;;;9.00;71.44;102341.13;5033689;28;20013;-82
2022/03/15 11:17:42;;;;;;;9.85;5.00;;;;;;;9.01;71.06;102332.50;5034746;28;20425;-83
2022/03/15 11:20:10;;;;;;;7.37;4.73;;;;;;;9.03;71.01;102329.94;5034405;28;20032;-84
2022/03/15 11:22:36;;;;;;;8.18;4.45;;;;;;;9.05;71.43;102323.06;5033493;28;20029;-83
2022/03/15 11:25:04;;;;;;;6.73;4.00;;;;;;;9.09;71.43;102320.56;5034431;28;20133;-86
2022/03/15 11:27:32;;;;;;;8.35;4.47;;;;;;;9.19;71.09;102312.91;5016506;28;20703;-82
2022/03/15 11:30:13;;;;;;;7.13;4.18;;;;;;;9.21;71.28;102317.25;5033884;28;20045;-83